Red Level, AL

3:20 PM CDT on August 28, 2016 (GMT -0500)
Red Level | | Change Station

Elev 345 ft 31.37 °N, 86.62 °W | Updated 2 minutes ago

Partly Cloudy
Partly Cloudy
88.4 °F
Feels Like 100 °F
N
4.0
Wind Variable Wind from East
Gusts 7.0 mph

Today
High -- | Low -- °F
--% Chance of Precip.
Yesterday
High -- | Low -- °F
Precip. -- in
Pressure 29.98 in
Visibility 10.0 miles
Clouds Few 3900 ft
Few 8500 ft
Heat Index 100 °F
Dew Point 76 °F
Humidity 67%
Rainfall 0.00 in
Snow Depth Not available.
6:20 AM 7:14 PM
Waning Crescent, 13% visible
METAR K79J 281956Z AUTO 09009KT 10SM FEW039 FEW085 36/22 A3000 RMK AO2 RAE00 SLP152 P0000 T03560222
Pressure 29.98 in
Visibility 10.0 miles
Clouds Few 3900 ft
Few 8500 ft
Heat Index 100 °F
Dew Point 76 °F
Humidity 67%
Rainfall 0.00 in
Snow Depth Not available.
6:20 AM 7:14 PM
Waning Crescent, 13% visible
METAR K79J 281956Z AUTO 09009KT 10SM FEW039 FEW085 36/22 A3000 RMK AO2 RAE00 SLP152 P0000 T03560222

10-Day Weather Forecast

Almanac

Astronomy

Aug. 28, 2016 Rise Set
Actual Time
Civil Twilight
Nautical Twilight
Astronomical Twilight
Moon
Length of Visible Light
Length of Day
Tomorrow will be .
, % of the Moon is Illuminated

Today's Extremes

State Highs State Lows

Community

WunderPhotos

Upload Photos

1,935,677 photos uploaded!

WunderBlog® & News

Nearby

Air Quality

  Air Quality AQ Index Pollutant
Not available.

Snow Depth

Station Depth Elevation

Earthquake Activity

City Distance Mag. Time & Date
Minimum magnitude displayed is 2.5.

Coastal Water Temperatures

Place Temperature

Stations

Nearby Weather Stations

Station Location Temp. Windchill Dew Point Humidity Wind Precip. Elev Updated Type
                   

Watches & Warnings

There are currently no watches in effect.